createdAt,value
2023-05-01T05:32:09.508Z,2.03
2023-05-01T05:34:38.355Z,2.95
2023-05-01T05:37:05.098Z,3.53
2023-05-01T05:39:34.997Z,3.38
2023-05-01T05:42:03.548Z,3.90
2023-05-01T05:44:35.788Z,3.75
2023-05-01T05:47:04.890Z,3.50
2023-05-01T05:49:38.560Z,2.83
2023-05-01T05:52:05.224Z,3.60
2023-05-01T05:54:34.292Z,3.28
2023-05-01T05:57:01.108Z,4.40
2023-05-01T05:59:30.318Z,4.03
2023-05-01T06:02:00.270Z,3.40
2023-05-01T06:04:29.119Z,3.50
2023-05-01T06:06:55.990Z,3.28
2023-05-01T06:09:22.802Z,3.65
2023-05-01T06:11:51.608Z,3.17
2023-05-01T06:14:20.646Z,2.88
2023-05-01T06:16:55.295Z,4.00
2023-05-01T06:19:27.068Z,3.65
2023-05-01T06:22:06.903Z,3.55
2023-05-01T06:24:39.663Z,3.45
2023-05-01T06:27:07.902Z,3.47
2023-05-01T06:29:34.480Z,2.90
2023-05-01T06:32:01.197Z,3.63
2023-05-01T06:34:27.989Z,3.97
2023-05-01T06:36:56.882Z,2.85
2023-05-01T06:39:23.850Z,2.88
2023-05-01T06:41:50.583Z,3.20
2023-05-01T06:44:25.061Z,2.92
2023-05-01T06:46:51.684Z,3.40
2023-05-01T06:49:18.292Z,3.15
2023-05-01T06:51:45.420Z,3.83
2023-05-01T06:54:12.681Z,3.47
2023-05-01T06:56:39.699Z,2.75
2023-05-01T06:59:06.662Z,3.85
2023-05-01T07:01:35.439Z,3.17
2023-05-01T07:04:03.833Z,3.50
2023-05-01T07:06:31.022Z,3.67
2023-05-01T07:08:57.700Z,3.88
2023-05-01T07:11:24.319Z,3.35
2023-05-01T07:13:50.858Z,3.55
2023-05-01T07:16:17.495Z,3.80
2023-05-01T07:18:44.101Z,3.42
2023-05-01T07:21:11.835Z,3.83
2023-05-01T07:23:38.539Z,3.53
2023-05-01T07:26:05.644Z,3.17
2023-05-01T07:28:32.221Z,3.40
2023-05-01T07:30:58.812Z,2.63
2023-05-01T07:33:28.313Z,3.45
2023-05-01T07:35:59.940Z,3.17
2023-05-01T07:38:26.879Z,3.30
2023-05-01T07:40:53.755Z,3.00
2023-05-01T07:43:24.596Z,3.63
2023-05-01T07:46:01.592Z,3.03
2023-05-01T07:48:28.723Z,2.50
2023-05-01T07:50:56.457Z,5.18
2023-05-01T07:53:25.510Z,3.47
2023-05-01T07:56:11.614Z,3.45
2023-05-01T07:58:38.543Z,3.53
2023-05-01T08:01:06.502Z,3.50
2023-05-01T08:03:38.892Z,2.75
2023-05-01T08:06:10.099Z,3.03
2023-05-01T08:08:36.694Z,3.33
2023-05-01T08:11:05.915Z,3.42
2023-05-01T08:13:32.603Z,4.13
2023-05-01T08:16:08.117Z,3.35
2023-05-01T08:18:34.811Z,3.30
2023-05-01T08:21:01.385Z,3.35
2023-05-01T08:23:28.119Z,3.38
2023-05-01T08:25:59.213Z,3.15
2023-05-01T08:28:27.322Z,3.03
2023-05-01T08:30:53.917Z,3.42
2023-05-01T08:33:20.652Z,2.85
2023-05-01T08:35:48.337Z,3.10
2023-05-01T08:38:15.082Z,2.53
2023-05-01T08:40:53.355Z,2.53
2023-05-01T08:43:24.032Z,2.15
2023-05-01T08:45:54.201Z,2.47
2023-05-01T08:48:21.797Z,2.47
2023-05-01T08:50:49.410Z,2.60
2023-05-01T08:53:17.640Z,2.72
2023-05-01T08:55:47.477Z,2.10
2023-05-01T08:58:17.130Z,2.67
2023-05-01T09:00:45.121Z,2.28
2023-05-01T09:03:15.630Z,2.28
2023-05-01T09:05:43.255Z,2.75
2023-05-01T09:08:09.885Z,2.75
2023-05-01T09:10:44.175Z,2.90
2023-05-01T09:13:11.033Z,3.05
2023-05-01T09:15:38.214Z,2.85
2023-05-01T09:18:04.892Z,3.33
2023-05-01T09:20:32.388Z,3.00
2023-05-01T09:22:59.221Z,3.03
2023-05-01T09:25:28.688Z,2.85
2023-05-01T09:27:56.820Z,3.17
2023-05-01T09:30:43.702Z,2.83
2023-05-01T09:33:12.930Z,3.03
2023-05-01T09:35:56.930Z,3.40
2023-05-01T09:38:28.945Z,3.88
2023-05-01T09:41:04.180Z,4.07
2023-05-01T09:43:31.586Z,3.40
2023-05-01T09:46:09.198Z,3.80
2023-05-01T09:48:37.384Z,4.38
2023-05-01T09:51:23.844Z,3.75
2023-05-01T09:53:52.076Z,4.18
2023-05-01T09:56:20.308Z,4.10
2023-05-01T09:59:19.402Z,3.85
2023-05-01T10:01:50.519Z,4.17
2023-05-01T10:04:17.995Z,4.30
2023-05-01T10:06:48.263Z,4.32
2023-05-01T10:09:28.008Z,3.85
2023-05-01T10:12:00.346Z,4.55
2023-05-01T10:14:33.116Z,4.80
2023-05-01T10:16:59.824Z,4.63
2023-05-01T10:19:33.759Z,3.70
2023-05-01T10:22:02.101Z,4.00
2023-05-01T10:24:28.810Z,4.63
2023-05-01T10:27:00.018Z,3.90
2023-05-01T10:29:36.449Z,4.00
2023-05-01T10:32:10.204Z,4.88
2023-05-01T10:34:43.129Z,4.50
2023-05-01T10:37:13.946Z,4.25
2023-05-01T10:39:40.566Z,4.63
2023-05-01T10:42:22.748Z,4.13
2023-05-01T10:44:51.848Z,4.18
2023-05-01T10:47:42.611Z,4.07
2023-05-01T10:50:29.554Z,4.45
2023-05-01T10:53:11.656Z,4.13
2023-05-01T10:55:45.279Z,3.70
2023-05-01T10:58:53.815Z,4.35
2023-05-01T11:01:37.721Z,3.97
2023-05-01T11:04:07.950Z,4.40
2023-05-01T11:06:35.789Z,4.30
2023-05-01T11:09:22.770Z,4.03
2023-05-01T11:11:49.784Z,3.58
2023-05-01T11:14:16.585Z,3.90
2023-05-01T11:16:45.779Z,3.17
2023-05-01T11:19:47.518Z,3.53
2023-05-01T11:22:14.347Z,3.47
2023-05-01T11:24:41.276Z,3.70
2023-05-01T11:27:08.461Z,4.03
2023-05-01T11:29:36.849Z,4.20
2023-05-01T11:32:03.474Z,4.53
2023-05-01T11:34:37.612Z,4.45
2023-05-01T11:37:04.275Z,4.72
2023-05-01T11:39:30.819Z,5.13
2023-05-01T11:42:09.921Z,3.67
2023-05-01T11:44:37.400Z,4.30
2023-05-01T11:47:04.242Z,4.32
2023-05-01T11:49:30.852Z,4.20
2023-05-01T11:52:00.541Z,4.43
2023-05-01T11:54:27.364Z,4.32
2023-05-01T11:57:00.997Z,4.68
2023-05-01T11:59:27.857Z,4.50
2023-05-01T12:01:54.667Z,5.13
2023-05-01T12:04:30.630Z,4.88
2023-05-01T12:06:58.399Z,5.47
2023-05-01T12:09:29.193Z,5.10
2023-05-01T12:11:59.383Z,5.40
2023-05-01T12:14:26.212Z,5.35
2023-05-01T12:16:53.169Z,4.78
2023-05-01T12:19:21.684Z,5.35
2023-05-01T12:21:48.409Z,4.97
2023-05-01T12:24:19.024Z,5.43
2023-05-01T12:26:46.834Z,5.40
2023-05-01T12:29:13.537Z,5.30
2023-05-01T12:31:48.081Z,5.57
2023-05-01T12:34:14.912Z,5.60
2023-05-01T12:36:41.637Z,5.20
2023-05-01T12:39:10.356Z,4.38
2023-05-01T12:41:43.250Z,3.92
2023-05-01T12:44:30.608Z,2.95
2023-05-01T12:47:01.614Z,2.20
2023-05-01T12:49:29.880Z,3.33
2023-05-01T12:51:57.907Z,3.65
2023-05-01T12:54:28.414Z,3.55
2023-05-01T12:57:05.284Z,4.28
2023-05-01T12:59:32.075Z,4.75
2023-05-01T13:02:04.495Z,4.82
2023-05-01T13:04:31.821Z,5.22
2023-05-01T13:07:01.690Z,5.65
2023-05-01T13:09:32.654Z,5.97
2023-05-01T13:12:06.904Z,5.57
2023-05-01T13:14:38.861Z,5.63
2023-05-01T13:17:09.259Z,5.03
2023-05-01T13:19:36.746Z,5.22
2023-05-01T13:22:03.554Z,6.07
2023-05-01T13:24:41.593Z,8.00
2023-05-01T13:27:09.105Z,6.82
2023-05-01T13:29:38.543Z,6.75
2023-05-01T13:32:06.647Z,7.18
2023-05-01T13:34:34.313Z,7.15
2023-05-01T13:37:02.133Z,7.38
2023-05-01T13:39:28.936Z,7.43
2023-05-01T13:41:55.895Z,8.23
2023-05-01T13:44:22.600Z,8.02
2023-05-01T13:46:50.068Z,8.07
2023-05-01T13:49:25.633Z,8.27
2023-05-01T13:51:52.557Z,8.18
2023-05-01T13:54:22.057Z,7.75
2023-05-01T13:56:48.685Z,8.07
2023-05-01T13:59:16.397Z,8.18
2023-05-01T14:01:46.152Z,9.10
2023-05-01T14:04:25.007Z,8.93
2023-05-01T14:06:51.913Z,8.90
2023-05-01T14:09:19.054Z,8.15
2023-05-01T14:11:47.775Z,8.18
2023-05-01T14:14:18.330Z,8.15
2023-05-01T14:16:52.297Z,8.57
2023-05-01T14:19:18.984Z,8.35
2023-05-01T14:21:46.725Z,7.32
2023-05-01T14:24:14.266Z,7.18
2023-05-01T14:26:44.283Z,7.55
2023-05-01T14:29:29.845Z,6.55
2023-05-01T14:32:04.146Z,6.60
2023-05-01T14:34:31.659Z,6.95
2023-05-01T14:36:58.466Z,7.78
2023-05-01T14:39:26.246Z,8.73
2023-05-01T14:41:55.737Z,7.90
2023-05-01T14:44:26.218Z,7.68
2023-05-01T14:46:52.953Z,7.95
2023-05-01T14:49:22.405Z,7.78
2023-05-01T14:51:49.481Z,7.40
2023-05-01T14:54:16.216Z,5.82
2023-05-01T14:56:43.743Z,6.13
2023-05-01T14:59:10.298Z,6.45
2023-05-01T15:01:36.990Z,6.43
2023-05-01T15:04:06.106Z,5.97
2023-05-01T15:06:33.686Z,6.57
2023-05-01T15:09:00.835Z,7.53
2023-05-01T15:11:27.508Z,7.20
2023-05-01T15:13:54.530Z,7.20
2023-05-01T15:16:21.129Z,7.40
2023-05-01T15:18:47.714Z,7.10
2023-05-01T15:21:14.343Z,7.40
2023-05-01T15:23:44.894Z,8.38
2023-05-01T15:26:11.717Z,7.25
2023-05-01T15:28:38.578Z,7.22
2023-05-01T15:31:05.761Z,6.75
2023-05-01T15:33:32.507Z,7.47
2023-05-01T15:35:59.093Z,6.20
2023-05-01T15:38:27.147Z,6.65
2023-05-01T15:40:53.894Z,6.53
2023-05-01T15:43:22.123Z,7.15
2023-05-01T15:45:49.333Z,6.90
2023-05-01T15:48:15.999Z,6.32
2023-05-01T15:50:42.597Z,7.20
2023-05-01T15:53:09.163Z,6.15
2023-05-01T15:55:36.590Z,6.82
2023-05-01T15:58:03.381Z,6.93
2023-05-01T16:00:30.199Z,7.03
2023-05-01T16:02:56.918Z,7.07
2023-05-01T16:05:24.739Z,8.40
2023-05-01T16:07:55.346Z,11.23
2023-05-01T16:10:23.838Z,13.80
2023-05-01T16:12:51.149Z,10.52
2023-05-01T16:15:18.218Z,10.30
2023-05-01T16:17:45.709Z,10.02
2023-05-01T16:20:14.070Z,9.82
2023-05-01T16:22:41.671Z,10.75
2023-05-01T16:25:09.864Z,10.45
2023-05-01T16:27:41.180Z,9.75
2023-05-01T16:30:09.237Z,9.70
2023-05-01T16:32:39.944Z,8.43
2023-05-01T16:35:09.739Z,9.45
2023-05-01T16:37:36.314Z,9.43
2023-05-01T16:40:04.381Z,9.00
2023-05-01T16:42:30.978Z,7.82
2023-05-01T16:44:58.781Z,8.40
2023-05-01T16:47:25.614Z,8.48
2023-05-01T16:49:59.282Z,10.13
2023-05-01T16:52:26.618Z,8.50
2023-05-01T16:54:55.490Z,8.95
2023-05-01T16:57:22.074Z,9.95
2023-05-01T16:59:54.259Z,9.77
2023-05-01T17:02:26.591Z,7.90
2023-05-01T17:04:53.440Z,7.93
2023-05-01T17:07:22.846Z,6.95
2023-05-01T17:09:49.394Z,7.28
2023-05-01T17:12:16.041Z,6.28
2023-05-01T17:14:49.513Z,5.85
2023-05-01T17:17:23.473Z,5.15
2023-05-01T17:19:53.238Z,4.10
2023-05-01T17:22:19.913Z,5.10
2023-05-01T17:24:47.183Z,4.78
2023-05-01T17:27:13.790Z,4.50
2023-05-01T17:29:41.600Z,4.53
2023-05-01T17:32:11.355Z,4.63
2023-05-01T17:34:38.201Z,5.07
2023-05-01T17:37:09.713Z,4.78
2023-05-01T17:39:36.254Z,4.22
2023-05-01T17:42:04.204Z,4.43
2023-05-01T17:44:36.965Z,4.30
2023-05-01T17:47:05.988Z,4.43
2023-05-01T17:49:33.025Z,5.05
2023-05-01T17:52:05.047Z,5.05
2023-05-01T17:54:31.973Z,4.72
2023-05-01T17:57:01.635Z,4.95
2023-05-01T17:59:30.527Z,4.65
2023-05-01T18:02:02.290Z,4.45
2023-05-01T18:04:29.314Z,4.88
2023-05-01T18:06:59.027Z,4.97
2023-05-01T18:09:27.909Z,5.25
2023-05-01T18:11:54.486Z,5.32
2023-05-01T18:14:21.070Z,5.45
2023-05-01T18:16:48.984Z,5.40
2023-05-01T18:19:15.609Z,5.60
2023-05-01T18:21:44.760Z,5.10
2023-05-01T18:24:13.865Z,4.95
2023-05-01T18:26:45.317Z,5.05
2023-05-01T18:29:15.961Z,5.32
2023-05-01T18:31:50.521Z,5.18
2023-05-01T18:34:19.374Z,5.07
2023-05-01T18:36:51.809Z,4.97
2023-05-01T18:41:55.487Z,4.57
2023-05-01T18:44:24.241Z,5.53
2023-05-01T18:46:50.933Z,5.72
2023-05-01T18:49:23.191Z,6.00
2023-05-01T18:51:57.778Z,5.85
2023-05-01T18:54:24.450Z,5.65
2023-05-01T18:56:51.094Z,6.90
2023-05-01T18:59:35.871Z,6.07
2023-05-01T19:02:07.027Z,6.78
2023-05-01T19:04:56.011Z,5.78
2023-05-01T19:07:26.021Z,5.22
2023-05-01T19:09:55.314Z,5.60
2023-05-01T19:12:21.860Z,6.22
2023-05-01T19:14:48.496Z,5.78
2023-05-01T19:17:21.443Z,6.40
2023-05-01T19:19:49.353Z,7.40
2023-05-01T19:22:16.484Z,6.47
2023-05-01T19:24:43.103Z,6.13
2023-05-01T19:27:13.053Z,5.88
2023-05-01T19:32:11.301Z,5.32
2023-05-01T19:34:37.960Z,5.85
2023-05-01T19:37:05.487Z,6.25
2023-05-01T19:39:32.054Z,6.80
2023-05-01T19:42:02.981Z,6.40
2023-05-01T19:44:35.422Z,6.88
2023-05-01T19:47:07.477Z,6.63
2023-05-01T19:49:46.594Z,6.65
2023-05-01T19:52:15.537Z,6.45
2023-05-01T19:54:47.725Z,5.90
2023-05-01T19:57:17.805Z,6.07
2023-05-01T19:59:46.253Z,7.03
2023-05-01T20:02:12.994Z,6.85
2023-05-01T20:04:39.677Z,7.18
2023-05-01T20:07:12.356Z,6.93
2023-05-01T20:09:41.753Z,6.88
2023-05-01T20:12:10.449Z,6.40
2023-05-01T20:14:37.042Z,6.88
2023-05-01T20:17:03.772Z,7.15
2023-05-01T20:19:34.097Z,6.80
2023-05-01T20:22:03.172Z,6.22
2023-05-01T20:24:34.462Z,6.38
2023-05-01T20:27:01.098Z,6.40
2023-05-01T20:29:28.049Z,7.05
2023-05-01T20:31:54.713Z,7.28
2023-05-01T20:34:30.810Z,7.80
2023-05-01T20:36:57.452Z,8.23
2023-05-01T20:39:24.329Z,8.60
2023-05-01T20:41:53.018Z,8.52
2023-05-01T20:44:22.083Z,7.85
2023-05-01T20:46:48.901Z,8.30
2023-05-01T20:49:16.255Z,8.32
2023-05-01T20:51:43.106Z,7.85
2023-05-01T20:54:11.623Z,8.55
2023-05-01T20:56:38.303Z,8.30
2023-05-01T20:59:06.391Z,11.35
2023-05-01T21:01:35.445Z,12.80
2023-05-01T21:04:03.574Z,13.93
2023-05-01T21:06:31.920Z,13.52
2023-05-01T21:09:02.033Z,13.85
2023-05-01T21:11:33.030Z,14.45
2023-05-01T21:14:08.822Z,15.35
2023-05-01T21:16:39.262Z,15.57
2023-05-01T21:19:06.817Z,13.70
2023-05-01T21:21:42.746Z,12.15
2023-05-01T21:24:17.903Z,12.05
2023-05-01T21:26:49.086Z,11.77
2023-05-01T21:29:15.998Z,10.38
2023-05-01T21:31:45.068Z,11.05
2023-05-01T21:34:12.412Z,10.88
2023-05-01T21:36:44.947Z,10.77
2023-05-01T21:39:12.060Z,11.90
2023-05-01T21:41:43.211Z,10.23
2023-05-01T21:44:09.914Z,10.68
2023-05-01T21:46:44.887Z,9.90
2023-05-01T21:49:12.421Z,11.57
2023-05-01T21:51:42.358Z,11.32
2023-05-01T21:54:11.617Z,10.57
2023-05-01T21:56:41.242Z,10.32
2023-05-01T21:59:09.927Z,10.35
2023-05-01T22:01:38.783Z,9.95
2023-05-01T22:04:10.056Z,9.75
2023-05-01T22:06:36.761Z,13.60
2023-05-01T22:09:05.821Z,11.40
2023-05-01T22:11:34.803Z,13.82
2023-05-01T22:14:03.302Z,13.55
2023-05-01T22:16:29.916Z,17.58
2023-05-01T22:19:02.375Z,16.05
2023-05-01T22:24:09.886Z,17.48
2023-05-01T22:26:38.881Z,19.67
2023-05-01T22:29:06.064Z,19.45
2023-05-01T22:31:43.059Z,20.73
2023-05-01T22:34:12.112Z,18.60
2023-05-01T22:36:43.553Z,17.92
2023-05-01T22:39:12.964Z,17.17
2023-05-01T22:41:39.521Z,16.55
2023-05-01T22:44:06.315Z,18.08
2023-05-01T22:46:35.462Z,19.50
2023-05-01T22:49:03.274Z,18.90
2023-05-01T22:51:33.239Z,18.48
2023-05-01T22:54:01.765Z,17.35
2023-05-01T22:56:31.014Z,17.67
2023-05-01T22:58:59.772Z,19.25
2023-05-01T23:01:27.118Z,22.20
2023-05-01T23:03:55.260Z,20.33
2023-05-01T23:06:25.127Z,23.40
2023-05-01T23:08:53.533Z,20.95
2023-05-01T23:11:21.155Z,21.25
2023-05-01T23:13:50.183Z,23.33
2023-05-01T23:16:19.055Z,19.50
2023-05-01T23:18:45.661Z,17.65
2023-05-01T23:21:18.340Z,18.38
2023-05-01T23:23:47.205Z,19.02
2023-05-01T23:26:32.805Z,17.35
2023-05-01T23:29:04.371Z,17.52
2023-05-01T23:31:33.566Z,18.40
2023-05-01T23:34:02.193Z,17.25
2023-05-01T23:36:33.123Z,18.30
2023-05-01T23:39:03.051Z,17.60
2023-05-01T23:41:29.645Z,17.45
2023-05-01T23:44:04.110Z,16.77
2023-05-01T23:46:31.310Z,15.35
2023-05-01T23:48:59.855Z,20.95
2023-05-01T23:51:27.618Z,21.88
2023-05-01T23:53:56.348Z,24.50
2023-05-01T23:56:27.430Z,26.95
2023-05-01T23:58:54.036Z,27.13
